sensor_id;sensor_type;location;lat;lon;timestamp;P1;durP1;ratioP1;P2;durP2;ratioP2
52574;SDS011;38468;48.114;-1.684;2023-08-06T00:01:11;10.32;;;3.20;;
52574;SDS011;38468;48.114;-1.684;2023-08-06T00:03:12;8.48;;;3.15;;
52574;SDS011;38468;48.114;-1.684;2023-08-06T00:05:13;9.80;;;3.55;;
52574;SDS011;38468;48.114;-1.684;2023-08-06T00:07:14;10.88;;;3.25;;
52574;SDS011;38468;48.114;-1.684;2023-08-06T00:09:15;14.15;;;3.30;;
52574;SDS011;38468;48.114;-1.684;2023-08-06T00:11:15;8.50;;;4.13;;
52574;SDS011;38468;48.114;-1.684;2023-08-06T00:13:16;12.50;;;3.33;;
52574;SDS011;38468;48.114;-1.684;2023-08-06T00:15:17;15.52;;;4.20;;
52574;SDS011;38468;48.114;-1.684;2023-08-06T00:17:17;8.45;;;2.80;;
52574;SDS011;38468;48.114;-1.684;2023-08-06T00:19:18;7.03;;;2.85;;
52574;SDS011;38468;48.114;-1.684;2023-08-06T00:21:19;11.95;;;3.30;;
52574;SDS011;38468;48.114;-1.684;2023-08-06T00:23:19;14.27;;;4.07;;
52574;SDS011;38468;48.114;-1.684;2023-08-06T00:25:22;8.70;;;3.78;;
52574;SDS011;38468;48.114;-1.684;2023-08-06T00:27:22;11.63;;;3.88;;
52574;SDS011;38468;48.114;-1.684;2023-08-06T00:29:23;29.23;;;5.60;;
52574;SDS011;38468;48.114;-1.684;2023-08-06T00:31:24;9.82;;;3.10;;
52574;SDS011;38468;48.114;-1.684;2023-08-06T00:33:24;9.68;;;2.97;;
52574;SDS011;38468;48.114;-1.684;2023-08-06T00:35:25;14.07;;;4.18;;
52574;SDS011;38468;48.114;-1.684;2023-08-06T00:37:26;13.68;;;3.38;;
52574;SDS011;38468;48.114;-1.684;2023-08-06T00:39:26;11.10;;;3.25;;
52574;SDS011;38468;48.114;-1.684;2023-08-06T00:41:28;12.40;;;3.78;;
52574;SDS011;38468;48.114;-1.684;2023-08-06T00:43:28;12.38;;;3.47;;
52574;SDS011;38468;48.114;-1.684;2023-08-06T00:45:29;9.32;;;2.35;;
52574;SDS011;38468;48.114;-1.684;2023-08-06T00:47:33;11.18;;;3.17;;
52574;SDS011;38468;48.114;-1.684;2023-08-06T00:49:37;14.40;;;4.03;;
52574;SDS011;38468;48.114;-1.684;2023-08-06T00:51:39;8.80;;;2.85;;
52574;SDS011;38468;48.114;-1.684;2023-08-06T00:53:39;12.45;;;2.92;;
52574;SDS011;38468;48.114;-1.684;2023-08-06T00:55:41;10.98;;;3.25;;
52574;SDS011;38468;48.114;-1.684;2023-08-06T00:57:44;11.75;;;3.08;;
52574;SDS011;38468;48.114;-1.684;2023-08-06T00:59:45;7.03;;;2.35;;
52574;SDS011;38468;48.114;-1.684;2023-08-06T01:01:46;13.40;;;2.97;;
52574;SDS011;38468;48.114;-1.684;2023-08-06T01:03:46;13.82;;;3.10;;
52574;SDS011;38468;48.114;-1.684;2023-08-06T01:05:47;10.52;;;2.63;;
52574;SDS011;38468;48.114;-1.684;2023-08-06T01:07:51;13.45;;;4.20;;
52574;SDS011;38468;48.114;-1.684;2023-08-06T01:15:41;9.77;;;2.67;;
52574;SDS011;38468;48.114;-1.684;2023-08-06T01:17:36;8.80;;;2.78;;
52574;SDS011;38468;48.114;-1.684;2023-08-06T01:19:37;10.07;;;3.88;;
52574;SDS011;38468;48.114;-1.684;2023-08-06T01:21:37;11.13;;;3.22;;
52574;SDS011;38468;48.114;-1.684;2023-08-06T01:23:38;14.65;;;3.08;;
52574;SDS011;38468;48.114;-1.684;2023-08-06T01:28:10;6.60;;;2.67;;
52574;SDS011;38468;48.114;-1.684;2023-08-06T01:30:20;13.30;;;3.17;;
52574;SDS011;38468;48.114;-1.684;2023-08-06T01:32:25;13.50;;;2.95;;
52574;SDS011;38468;48.114;-1.684;2023-08-06T01:34:28;9.90;;;2.03;;
52574;SDS011;38468;48.114;-1.684;2023-08-06T01:36:31;10.18;;;3.03;;
52574;SDS011;38468;48.114;-1.684;2023-08-06T01:38:32;10.30;;;3.13;;
52574;SDS011;38468;48.114;-1.684;2023-08-06T01:40:33;9.73;;;2.42;;
52574;SDS011;38468;48.114;-1.684;2023-08-06T01:42:34;11.48;;;3.00;;
52574;SDS011;38468;48.114;-1.684;2023-08-06T01:44:35;8.43;;;2.58;;
52574;SDS011;38468;48.114;-1.684;2023-08-06T01:46:36;4.90;;;2.60;;
52574;SDS011;38468;48.114;-1.684;2023-08-06T01:48:36;10.38;;;2.47;;
52574;SDS011;38468;48.114;-1.684;2023-08-06T01:50:37;7.40;;;2.22;;
52574;SDS011;38468;48.114;-1.684;2023-08-06T01:52:38;7.95;;;2.22;;
52574;SDS011;38468;48.114;-1.684;2023-08-06T01:54:38;5.30;;;2.10;;
52574;SDS011;38468;48.114;-1.684;2023-08-06T01:56:39;11.48;;;2.47;;
52574;SDS011;38468;48.114;-1.684;2023-08-06T01:58:40;14.27;;;2.47;;
52574;SDS011;38468;48.114;-1.684;2023-08-06T02:00:40;8.32;;;2.67;;
52574;SDS011;38468;48.114;-1.684;2023-08-06T02:02:41;6.40;;;2.25;;
52574;SDS011;38468;48.114;-1.684;2023-08-06T02:04:42;9.60;;;2.30;;
52574;SDS011;38468;48.114;-1.684;2023-08-06T02:06:42;11.65;;;2.35;;
52574;SDS011;38468;48.114;-1.684;2023-08-06T02:08:43;9.50;;;2.28;;
52574;SDS011;38468;48.114;-1.684;2023-08-06T02:10:44;14.85;;;2.85;;
52574;SDS011;38468;48.114;-1.684;2023-08-06T02:12:45;12.63;;;2.88;;
52574;SDS011;38468;48.114;-1.684;2023-08-06T02:14:45;7.72;;;2.88;;
52574;SDS011;38468;48.114;-1.684;2023-08-06T02:16:46;12.77;;;2.55;;
52574;SDS011;38468;48.114;-1.684;2023-08-06T02:18:47;9.27;;;2.78;;
52574;SDS011;38468;48.114;-1.684;2023-08-06T02:20:57;14.30;;;3.10;;
52574;SDS011;38468;48.114;-1.684;2023-08-06T02:22:58;12.98;;;2.88;;
52574;SDS011;38468;48.114;-1.684;2023-08-06T02:24:59;6.43;;;1.90;;
52574;SDS011;38468;48.114;-1.684;2023-08-06T02:26:59;9.80;;;3.17;;
52574;SDS011;38468;48.114;-1.684;2023-08-06T02:29:00;11.38;;;2.92;;
52574;SDS011;38468;48.114;-1.684;2023-08-06T02:31:01;8.40;;;2.25;;
52574;SDS011;38468;48.114;-1.684;2023-08-06T02:33:01;11.05;;;2.58;;
52574;SDS011;38468;48.114;-1.684;2023-08-06T02:35:02;11.15;;;3.17;;
52574;SDS011;38468;48.114;-1.684;2023-08-06T02:37:03;11.27;;;2.83;;
52574;SDS011;38468;48.114;-1.684;2023-08-06T02:39:04;10.52;;;3.13;;
52574;SDS011;38468;48.114;-1.684;2023-08-06T02:41:04;11.50;;;2.90;;
52574;SDS011;38468;48.114;-1.684;2023-08-06T02:43:05;9.75;;;2.45;;
52574;SDS011;38468;48.114;-1.684;2023-08-06T02:45:06;9.48;;;2.67;;
52574;SDS011;38468;48.114;-1.684;2023-08-06T02:47:07;10.18;;;2.38;;
52574;SDS011;38468;48.114;-1.684;2023-08-06T02:49:07;8.77;;;3.00;;
52574;SDS011;38468;48.114;-1.684;2023-08-06T02:51:08;16.52;;;3.90;;
52574;SDS011;38468;48.114;-1.684;2023-08-06T02:53:09;9.18;;;2.38;;
52574;SDS011;38468;48.114;-1.684;2023-08-06T02:55:09;12.85;;;2.17;;
52574;SDS011;38468;48.114;-1.684;2023-08-06T02:57:10;5.10;;;2.50;;
52574;SDS011;38468;48.114;-1.684;2023-08-06T02:59:11;6.93;;;2.17;;
52574;SDS011;38468;48.114;-1.684;2023-08-06T03:01:12;7.40;;;3.05;;
52574;SDS011;38468;48.114;-1.684;2023-08-06T03:03:14;10.23;;;2.92;;
52574;SDS011;38468;48.114;-1.684;2023-08-06T03:05:14;16.50;;;3.00;;
52574;SDS011;38468;48.114;-1.684;2023-08-06T03:07:15;7.18;;;2.40;;
52574;SDS011;38468;48.114;-1.684;2023-08-06T03:09:16;13.93;;;2.90;;
52574;SDS011;38468;48.114;-1.684;2023-08-06T03:11:17;11.30;;;3.30;;
52574;SDS011;38468;48.114;-1.684;2023-08-06T03:13:18;11.48;;;3.25;;
52574;SDS011;38468;48.114;-1.684;2023-08-06T03:15:19;6.78;;;2.22;;
52574;SDS011;38468;48.114;-1.684;2023-08-06T03:17:19;7.57;;;3.30;;
52574;SDS011;38468;48.114;-1.684;2023-08-06T03:19:20;10.27;;;3.08;;
52574;SDS011;38468;48.114;-1.684;2023-08-06T03:21:21;10.38;;;2.92;;
52574;SDS011;38468;48.114;-1.684;2023-08-06T03:23:21;5.57;;;3.22;;
52574;SDS011;38468;48.114;-1.684;2023-08-06T03:25:22;12.68;;;2.88;;
52574;SDS011;38468;48.114;-1.684;2023-08-06T03:27:23;9.68;;;2.83;;
52574;SDS011;38468;48.114;-1.684;2023-08-06T03:29:23;11.13;;;2.90;;
52574;SDS011;38468;48.114;-1.684;2023-08-06T03:31:24;9.95;;;2.20;;
52574;SDS011;38468;48.114;-1.684;2023-08-06T03:33:25;7.78;;;2.55;;
52574;SDS011;38468;48.114;-1.684;2023-08-06T03:35:25;14.57;;;4.00;;
52574;SDS011;38468;48.114;-1.684;2023-08-06T03:37:26;13.73;;;3.42;;
52574;SDS011;38468;48.114;-1.684;2023-08-06T03:39:26;11.52;;;2.88;;
52574;SDS011;38468;48.114;-1.684;2023-08-06T03:41:27;8.05;;;2.28;;
52574;SDS011;38468;48.114;-1.684;2023-08-06T03:43:28;9.60;;;2.53;;
52574;SDS011;38468;48.114;-1.684;2023-08-06T03:45:28;10.90;;;2.85;;
52574;SDS011;38468;48.114;-1.684;2023-08-06T03:47:29;8.82;;;2.63;;
52574;SDS011;38468;48.114;-1.684;2023-08-06T03:49:30;10.77;;;2.28;;
52574;SDS011;38468;48.114;-1.684;2023-08-06T03:51:31;7.43;;;2.45;;
52574;SDS011;38468;48.114;-1.684;2023-08-06T03:53:31;9.95;;;2.50;;
52574;SDS011;38468;48.114;-1.684;2023-08-06T03:55:32;11.38;;;2.85;;
52574;SDS011;38468;48.114;-1.684;2023-08-06T03:57:33;9.70;;;2.28;;
52574;SDS011;38468;48.114;-1.684;2023-08-06T03:59:33;9.98;;;1.90;;
52574;SDS011;38468;48.114;-1.684;2023-08-06T04:01:34;14.32;;;3.38;;
52574;SDS011;38468;48.114;-1.684;2023-08-06T04:03:34;10.52;;;3.20;;
52574;SDS011;38468;48.114;-1.684;2023-08-06T04:05:35;11.68;;;3.03;;
52574;SDS011;38468;48.114;-1.684;2023-08-06T04:07:36;8.88;;;2.20;;
52574;SDS011;38468;48.114;-1.684;2023-08-06T04:09:52;10.15;;;3.70;;
52574;SDS011;38468;48.114;-1.684;2023-08-06T04:11:59;6.38;;;2.88;;
52574;SDS011;38468;48.114;-1.684;2023-08-06T04:14:01;11.80;;;3.58;;
52574;SDS011;38468;48.114;-1.684;2023-08-06T04:16:02;9.82;;;2.72;;
52574;SDS011;38468;48.114;-1.684;2023-08-06T04:18:03;13.55;;;4.35;;
52574;SDS011;38468;48.114;-1.684;2023-08-06T04:20:04;10.75;;;3.72;;
52574;SDS011;38468;48.114;-1.684;2023-08-06T04:22:05;8.10;;;2.93;;
52574;SDS011;38468;48.114;-1.684;2023-08-06T04:24:06;11.17;;;3.80;;
52574;SDS011;38468;48.114;-1.684;2023-08-06T04:26:07;6.47;;;1.80;;
52574;SDS011;38468;48.114;-1.684;2023-08-06T04:28:08;8.00;;;2.33;;
52574;SDS011;38468;48.114;-1.684;2023-08-06T04:30:09;20.15;;;3.17;;
52574;SDS011;38468;48.114;-1.684;2023-08-06T04:32:11;7.03;;;2.35;;
52574;SDS011;38468;48.114;-1.684;2023-08-06T04:34:13;11.97;;;2.70;;
52574;SDS011;38468;48.114;-1.684;2023-08-06T04:36:13;10.70;;;2.45;;
52574;SDS011;38468;48.114;-1.684;2023-08-06T04:38:14;16.67;;;3.30;;
52574;SDS011;38468;48.114;-1.684;2023-08-06T04:40:14;16.00;;;3.15;;
52574;SDS011;38468;48.114;-1.684;2023-08-06T04:42:15;10.15;;;3.58;;
52574;SDS011;38468;48.114;-1.684;2023-08-06T04:44:16;9.77;;;2.25;;
52574;SDS011;38468;48.114;-1.684;2023-08-06T04:46:16;13.38;;;3.20;;
52574;SDS011;38468;48.114;-1.684;2023-08-06T04:48:17;13.18;;;2.67;;
52574;SDS011;38468;48.114;-1.684;2023-08-06T04:50:19;9.98;;;2.00;;
52574;SDS011;38468;48.114;-1.684;2023-08-06T04:52:19;9.52;;;2.03;;
52574;SDS011;38468;48.114;-1.684;2023-08-06T04:54:20;11.82;;;3.17;;
52574;SDS011;38468;48.114;-1.684;2023-08-06T04:56:21;6.85;;;2.20;;
52574;SDS011;38468;48.114;-1.684;2023-08-06T04:58:22;9.32;;;2.45;;
52574;SDS011;38468;48.114;-1.684;2023-08-06T05:00:22;13.23;;;3.17;;
52574;SDS011;38468;48.114;-1.684;2023-08-06T05:02:23;16.25;;;3.10;;
52574;SDS011;38468;48.114;-1.684;2023-08-06T05:04:23;9.57;;;3.38;;
52574;SDS011;38468;48.114;-1.684;2023-08-06T05:06:24;13.80;;;3.88;;
52574;SDS011;38468;48.114;-1.684;2023-08-06T05:08:25;15.07;;;4.18;;
52574;SDS011;38468;48.114;-1.684;2023-08-06T05:10:25;15.90;;;3.65;;
52574;SDS011;38468;48.114;-1.684;2023-08-06T05:12:26;12.07;;;2.83;;
52574;SDS011;38468;48.114;-1.684;2023-08-06T05:14:27;12.82;;;2.78;;
52574;SDS011;38468;48.114;-1.684;2023-08-06T05:16:28;10.82;;;2.70;;
52574;SDS011;38468;48.114;-1.684;2023-08-06T05:18:28;11.95;;;2.25;;
52574;SDS011;38468;48.114;-1.684;2023-08-06T05:20:30;9.90;;;2.83;;
52574;SDS011;38468;48.114;-1.684;2023-08-06T05:22:31;10.77;;;2.65;;
52574;SDS011;38468;48.114;-1.684;2023-08-06T05:24:31;12.50;;;3.15;;
52574;SDS011;38468;48.114;-1.684;2023-08-06T05:26:32;13.20;;;3.90;;
52574;SDS011;38468;48.114;-1.684;2023-08-06T05:28:33;8.43;;;2.67;;
52574;SDS011;38468;48.114;-1.684;2023-08-06T05:30:34;9.43;;;2.93;;
52574;SDS011;38468;48.114;-1.684;2023-08-06T05:32:39;8.60;;;2.80;;
52574;SDS011;38468;48.114;-1.684;2023-08-06T05:34:40;11.93;;;3.10;;
52574;SDS011;38468;48.114;-1.684;2023-08-06T05:36:41;12.05;;;3.00;;
52574;SDS011;38468;48.114;-1.684;2023-08-06T05:38:42;11.23;;;3.03;;
52574;SDS011;38468;48.114;-1.684;2023-08-06T05:40:42;11.93;;;2.28;;
52574;SDS011;38468;48.114;-1.684;2023-08-06T05:42:43;18.25;;;3.83;;
52574;SDS011;38468;48.114;-1.684;2023-08-06T05:44:44;15.63;;;3.42;;
52574;SDS011;38468;48.114;-1.684;2023-08-06T05:46:44;12.68;;;2.85;;
52574;SDS011;38468;48.114;-1.684;2023-08-06T05:48:45;11.15;;;2.78;;
52574;SDS011;38468;48.114;-1.684;2023-08-06T05:50:46;14.98;;;3.85;;
52574;SDS011;38468;48.114;-1.684;2023-08-06T05:52:46;22.67;;;3.15;;
52574;SDS011;38468;48.114;-1.684;2023-08-06T05:54:47;9.00;;;2.35;;
52574;SDS011;38468;48.114;-1.684;2023-08-06T05:56:47;8.55;;;2.90;;
52574;SDS011;38468;48.114;-1.684;2023-08-06T05:58:48;12.32;;;4.10;;
52574;SDS011;38468;48.114;-1.684;2023-08-06T06:00:51;11.93;;;4.10;;
52574;SDS011;38468;48.114;-1.684;2023-08-06T06:02:52;8.95;;;3.25;;
52574;SDS011;38468;48.114;-1.684;2023-08-06T06:04:52;15.55;;;4.53;;
52574;SDS011;38468;48.114;-1.684;2023-08-06T06:06:53;9.50;;;2.95;;
52574;SDS011;38468;48.114;-1.684;2023-08-06T06:08:54;12.52;;;3.38;;
52574;SDS011;38468;48.114;-1.684;2023-08-06T06:10:54;16.10;;;2.88;;
52574;SDS011;38468;48.114;-1.684;2023-08-06T06:12:55;13.48;;;3.08;;
52574;SDS011;38468;48.114;-1.684;2023-08-06T06:14:56;11.35;;;2.97;;
52574;SDS011;38468;48.114;-1.684;2023-08-06T06:16:57;8.73;;;2.83;;
52574;SDS011;38468;48.114;-1.684;2023-08-06T06:18:57;10.95;;;3.17;;
52574;SDS011;38468;48.114;-1.684;2023-08-06T06:20:58;10.50;;;3.17;;
52574;SDS011;38468;48.114;-1.684;2023-08-06T06:22:58;14.20;;;3.33;;
52574;SDS011;38468;48.114;-1.684;2023-08-06T06:24:59;7.72;;;2.65;;
52574;SDS011;38468;48.114;-1.684;2023-08-06T06:27:00;15.43;;;4.03;;
52574;SDS011;38468;48.114;-1.684;2023-08-06T06:29:00;8.35;;;2.67;;
52574;SDS011;38468;48.114;-1.684;2023-08-06T06:31:01;13.30;;;3.30;;
52574;SDS011;38468;48.114;-1.684;2023-08-06T06:33:02;11.73;;;3.53;;
52574;SDS011;38468;48.114;-1.684;2023-08-06T06:35:03;27.00;;;4.65;;
52574;SDS011;38468;48.114;-1.684;2023-08-06T06:37:04;10.63;;;3.35;;
52574;SDS011;38468;48.114;-1.684;2023-08-06T06:39:05;16.23;;;5.95;;
52574;SDS011;38468;48.114;-1.684;2023-08-06T06:41:05;14.50;;;5.75;;
52574;SDS011;38468;48.114;-1.684;2023-08-06T06:43:06;14.23;;;3.58;;
52574;SDS011;38468;48.114;-1.684;2023-08-06T06:45:07;13.77;;;3.88;;
52574;SDS011;38468;48.114;-1.684;2023-08-06T06:47:08;13.40;;;3.40;;
52574;SDS011;38468;48.114;-1.684;2023-08-06T06:49:09;18.02;;;3.55;;
52574;SDS011;38468;48.114;-1.684;2023-08-06T06:51:10;14.73;;;3.50;;
52574;SDS011;38468;48.114;-1.684;2023-08-06T06:53:10;10.60;;;3.45;;
52574;SDS011;38468;48.114;-1.684;2023-08-06T06:55:11;16.33;;;3.80;;
52574;SDS011;38468;48.114;-1.684;2023-08-06T06:57:11;10.27;;;2.92;;
52574;SDS011;38468;48.114;-1.684;2023-08-06T06:59:12;15.40;;;3.63;;
52574;SDS011;38468;48.114;-1.684;2023-08-06T07:01:13;16.55;;;4.25;;
52574;SDS011;38468;48.114;-1.684;2023-08-06T07:03:15;11.50;;;2.72;;
52574;SDS011;38468;48.114;-1.684;2023-08-06T07:05:15;15.43;;;4.13;;
52574;SDS011;38468;48.114;-1.684;2023-08-06T07:07:16;12.90;;;2.83;;
52574;SDS011;38468;48.114;-1.684;2023-08-06T07:09:17;11.65;;;3.03;;
52574;SDS011;38468;48.114;-1.684;2023-08-06T07:11:17;18.20;;;3.67;;
52574;SDS011;38468;48.114;-1.684;2023-08-06T07:13:18;11.48;;;3.17;;
52574;SDS011;38468;48.114;-1.684;2023-08-06T07:15:18;12.60;;;3.72;;
52574;SDS011;38468;48.114;-1.684;2023-08-06T07:17:19;17.40;;;4.25;;
52574;SDS011;38468;48.114;-1.684;2023-08-06T07:19:20;16.85;;;3.42;;
52574;SDS011;38468;48.114;-1.684;2023-08-06T07:21:21;10.02;;;2.72;;
52574;SDS011;38468;48.114;-1.684;2023-08-06T07:23:23;9.57;;;3.67;;
52574;SDS011;38468;48.114;-1.684;2023-08-06T07:25:25;10.10;;;3.63;;
52574;SDS011;38468;48.114;-1.684;2023-08-06T07:27:25;12.15;;;4.88;;
52574;SDS011;38468;48.114;-1.684;2023-08-06T07:29:26;18.10;;;6.75;;
52574;SDS011;38468;48.114;-1.684;2023-08-06T07:31:26;12.00;;;4.20;;
52574;SDS011;38468;48.114;-1.684;2023-08-06T07:33:27;10.43;;;3.15;;
52574;SDS011;38468;48.114;-1.684;2023-08-06T07:35:28;13.20;;;3.35;;
52574;SDS011;38468;48.114;-1.684;2023-08-06T07:37:29;10.65;;;3.05;;
52574;SDS011;38468;48.114;-1.684;2023-08-06T07:39:29;10.57;;;3.80;;
52574;SDS011;38468;48.114;-1.684;2023-08-06T07:41:30;12.82;;;3.42;;
52574;SDS011;38468;48.114;-1.684;2023-08-06T07:43:31;22.80;;;3.83;;
52574;SDS011;38468;48.114;-1.684;2023-08-06T07:45:32;20.80;;;3.70;;
52574;SDS011;38468;48.114;-1.684;2023-08-06T07:47:36;14.75;;;3.47;;
52574;SDS011;38468;48.114;-1.684;2023-08-06T07:49:37;11.48;;;3.58;;
52574;SDS011;38468;48.114;-1.684;2023-08-06T07:51:38;9.98;;;3.70;;
52574;SDS011;38468;48.114;-1.684;2023-08-06T07:53:38;12.82;;;3.58;;
52574;SDS011;38468;48.114;-1.684;2023-08-06T07:55:39;12.55;;;3.30;;
52574;SDS011;38468;48.114;-1.684;2023-08-06T07:57:40;16.80;;;3.50;;
52574;SDS011;38468;48.114;-1.684;2023-08-06T07:59:40;17.67;;;4.07;;
52574;SDS011;38468;48.114;-1.684;2023-08-06T08:01:41;8.45;;;2.85;;
52574;SDS011;38468;48.114;-1.684;2023-08-06T08:03:42;9.35;;;2.63;;
52574;SDS011;38468;48.114;-1.684;2023-08-06T08:05:43;12.55;;;3.28;;
52574;SDS011;38468;48.114;-1.684;2023-08-06T08:07:43;12.88;;;2.35;;
52574;SDS011;38468;48.114;-1.684;2023-08-06T08:09:44;10.98;;;2.95;;
52574;SDS011;38468;48.114;-1.684;2023-08-06T08:11:45;14.38;;;4.03;;
52574;SDS011;38468;48.114;-1.684;2023-08-06T08:13:46;10.57;;;2.95;;
52574;SDS011;38468;48.114;-1.684;2023-08-06T08:15:47;7.53;;;2.50;;
52574;SDS011;38468;48.114;-1.684;2023-08-06T08:17:48;18.20;;;6.85;;
52574;SDS011;38468;48.114;-1.684;2023-08-06T08:19:49;9.50;;;4.25;;
52574;SDS011;38468;48.114;-1.684;2023-08-06T08:21:49;8.77;;;3.13;;
52574;SDS011;38468;48.114;-1.684;2023-08-06T08:23:50;12.50;;;2.92;;
52574;SDS011;38468;48.114;-1.684;2023-08-06T08:25:51;13.03;;;2.63;;
52574;SDS011;38468;48.114;-1.684;2023-08-06T08:27:52;7.07;;;2.22;;
52574;SDS011;38468;48.114;-1.684;2023-08-06T08:29:54;11.70;;;2.90;;
52574;SDS011;38468;48.114;-1.684;2023-08-06T08:31:54;9.05;;;2.63;;
52574;SDS011;38468;48.114;-1.684;2023-08-06T08:33:55;16.08;;;3.47;;
52574;SDS011;38468;48.114;-1.684;2023-08-06T08:35:56;9.68;;;3.20;;
52574;SDS011;38468;48.114;-1.684;2023-08-06T08:37:56;9.80;;;2.85;;
52574;SDS011;38468;48.114;-1.684;2023-08-06T08:39:57;10.38;;;3.38;;
52574;SDS011;38468;48.114;-1.684;2023-08-06T08:41:58;7.97;;;2.75;;
52574;SDS011;38468;48.114;-1.684;2023-08-06T08:43:59;14.17;;;4.07;;
52574;SDS011;38468;48.114;-1.684;2023-08-06T08:46:00;9.95;;;2.70;;
52574;SDS011;38468;48.114;-1.684;2023-08-06T08:48:04;11.73;;;2.67;;
52574;SDS011;38468;48.114;-1.684;2023-08-06T08:50:05;13.60;;;2.38;;
52574;SDS011;38468;48.114;-1.684;2023-08-06T08:52:06;10.68;;;2.83;;
52574;SDS011;38468;48.114;-1.684;2023-08-06T08:54:11;11.50;;;2.67;;
52574;SDS011;38468;48.114;-1.684;2023-08-06T08:56:15;10.32;;;2.58;;
52574;SDS011;38468;48.114;-1.684;2023-08-06T08:58:16;5.95;;;2.03;;
52574;SDS011;38468;48.114;-1.684;2023-08-06T09:00:17;9.98;;;2.55;;
52574;SDS011;38468;48.114;-1.684;2023-08-06T09:02:17;6.68;;;2.17;;
52574;SDS011;38468;48.114;-1.684;2023-08-06T09:04:21;9.57;;;1.95;;
52574;SDS011;38468;48.114;-1.684;2023-08-06T09:06:23;8.32;;;2.00;;
52574;SDS011;38468;48.114;-1.684;2023-08-06T09:08:27;5.05;;;1.83;;
52574;SDS011;38468;48.114;-1.684;2023-08-06T09:10:48;8.55;;;2.33;;
52574;SDS011;38468;48.114;-1.684;2023-08-06T09:12:51;4.72;;;1.63;;
52574;SDS011;38468;48.114;-1.684;2023-08-06T09:14:53;9.10;;;2.03;;
52574;SDS011;38468;48.114;-1.684;2023-08-06T09:16:54;6.70;;;2.10;;
52574;SDS011;38468;48.114;-1.684;2023-08-06T09:18:55;4.22;;;1.90;;
52574;SDS011;38468;48.114;-1.684;2023-08-06T09:21:13;9.10;;;1.50;;
52574;SDS011;38468;48.114;-1.684;2023-08-06T09:23:16;5.07;;;1.95;;
52574;SDS011;38468;48.114;-1.684;2023-08-06T09:25:20;9.50;;;2.50;;
52574;SDS011;38468;48.114;-1.684;2023-08-06T09:27:24;11.35;;;1.73;;
52574;SDS011;38468;48.114;-1.684;2023-08-06T09:29:25;4.68;;;1.42;;
52574;SDS011;38468;48.114;-1.684;2023-08-06T09:31:32;8.20;;;3.15;;
52574;SDS011;38468;48.114;-1.684;2023-08-06T09:33:46;7.07;;;2.05;;
52574;SDS011;38468;48.114;-1.684;2023-08-06T09:35:49;9.55;;;2.88;;
52574;SDS011;38468;48.114;-1.684;2023-08-06T09:37:50;8.77;;;2.63;;
52574;SDS011;38468;48.114;-1.684;2023-08-06T09:39:50;9.43;;;1.88;;
52574;SDS011;38468;48.114;-1.684;2023-08-06T09:41:56;5.80;;;1.77;;
52574;SDS011;38468;48.114;-1.684;2023-08-06T09:43:59;5.20;;;1.73;;
52574;SDS011;38468;48.114;-1.684;2023-08-06T09:46:00;4.90;;;1.40;;
52574;SDS011;38468;48.114;-1.684;2023-08-06T09:48:04;4.97;;;1.30;;
52574;SDS011;38468;48.114;-1.684;2023-08-06T09:50:16;2.92;;;1.27;;
52574;SDS011;38468;48.114;-1.684;2023-08-06T09:52:20;2.70;;;0.98;;
52574;SDS011;38468;48.114;-1.684;2023-08-06T09:54:22;4.97;;;1.30;;
52574;SDS011;38468;48.114;-1.684;2023-08-06T09:56:23;3.13;;;0.95;;
52574;SDS011;38468;48.114;-1.684;2023-08-06T09:58:26;11.25;;;2.28;;
52574;SDS011;38468;48.114;-1.684;2023-08-06T10:00:27;5.55;;;1.38;;
52574;SDS011;38468;48.114;-1.684;2023-08-06T10:02:29;3.92;;;0.98;;
52574;SDS011;38468;48.114;-1.684;2023-08-06T10:04:29;5.50;;;1.20;;
52574;SDS011;38468;48.114;-1.684;2023-08-06T10:06:34;1.70;;;0.80;;
52574;SDS011;38468;48.114;-1.684;2023-08-06T10:08:38;1.90;;;1.00;;
52574;SDS011;38468;48.114;-1.684;2023-08-06T10:10:40;4.28;;;1.17;;
52574;SDS011;38468;48.114;-1.684;2023-08-06T10:12:45;7.53;;;1.05;;
52574;SDS011;38468;48.114;-1.684;2023-08-06T10:14:49;4.53;;;1.55;;
52574;SDS011;38468;48.114;-1.684;2023-08-06T10:16:53;4.20;;;1.35;;
52574;SDS011;38468;48.114;-1.684;2023-08-06T10:18:56;3.55;;;1.00;;
52574;SDS011;38468;48.114;-1.684;2023-08-06T10:20:59;2.33;;;1.23;;
52574;SDS011;38468;48.114;-1.684;2023-08-06T10:23:01;4.10;;;1.13;;
52574;SDS011;38468;48.114;-1.684;2023-08-06T10:25:03;2.08;;;1.15;;
52574;SDS011;38468;48.114;-1.684;2023-08-06T10:27:04;4.88;;;1.15;;
52574;SDS011;38468;48.114;-1.684;2023-08-06T10:31:54;7.95;;;2.10;;
52574;SDS011;38468;48.114;-1.684;2023-08-06T10:33:59;5.65;;;1.50;;
52574;SDS011;38468;48.114;-1.684;2023-08-06T10:36:02;2.35;;;1.00;;
52574;SDS011;38468;48.114;-1.684;2023-08-06T10:38:10;6.75;;;1.15;;
52574;SDS011;38468;48.114;-1.684;2023-08-06T10:40:10;4.43;;;1.00;;
52574;SDS011;38468;48.114;-1.684;2023-08-06T10:42:21;4.22;;;0.70;;
52574;SDS011;38468;48.114;-1.684;2023-08-06T10:44:30;1.95;;;0.70;;
52574;SDS011;38468;48.114;-1.684;2023-08-06T10:46:30;1.73;;;0.75;;
52574;SDS011;38468;48.114;-1.684;2023-08-06T10:48:33;3.78;;;0.80;;
52574;SDS011;38468;48.114;-1.684;2023-08-06T10:50:38;2.85;;;1.38;;
52574;SDS011;38468;48.114;-1.684;2023-08-06T10:52:40;3.92;;;0.75;;
52574;SDS011;38468;48.114;-1.684;2023-08-06T10:54:40;4.60;;;1.08;;
52574;SDS011;38468;48.114;-1.684;2023-08-06T10:56:41;2.60;;;0.95;;
52574;SDS011;38468;48.114;-1.684;2023-08-06T10:58:43;1.90;;;0.43;;
52574;SDS011;38468;48.114;-1.684;2023-08-06T11:00:47;1.48;;;0.73;;
52574;SDS011;38468;48.114;-1.684;2023-08-06T11:02:48;3.80;;;0.82;;
52574;SDS011;38468;48.114;-1.684;2023-08-06T11:04:49;4.18;;;0.70;;
52574;SDS011;38468;48.114;-1.684;2023-08-06T11:06:53;3.33;;;1.08;;
52574;SDS011;38468;48.114;-1.684;2023-08-06T11:08:54;3.65;;;0.90;;
52574;SDS011;38468;48.114;-1.684;2023-08-06T11:10:55;2.88;;;1.08;;
52574;SDS011;38468;48.114;-1.684;2023-08-06T11:13:07;2.97;;;0.90;;
52574;SDS011;38468;48.114;-1.684;2023-08-06T11:15:08;1.50;;;1.13;;
52574;SDS011;38468;48.114;-1.684;2023-08-06T11:17:09;1.67;;;0.83;;
52574;SDS011;38468;48.114;-1.684;2023-08-06T11:19:09;2.67;;;1.10;;
52574;SDS011;38468;48.114;-1.684;2023-08-06T11:21:10;1.70;;;0.90;;
52574;SDS011;38468;48.114;-1.684;2023-08-06T11:23:11;3.47;;;1.05;;
52574;SDS011;38468;48.114;-1.684;2023-08-06T11:25:14;2.05;;;0.80;;
52574;SDS011;38468;48.114;-1.684;2023-08-06T11:27:15;2.58;;;0.90;;
52574;SDS011;38468;48.114;-1.684;2023-08-06T11:31:20;3.60;;;1.33;;
52574;SDS011;38468;48.114;-1.684;2023-08-06T11:33:22;6.18;;;1.10;;
52574;SDS011;38468;48.114;-1.684;2023-08-06T11:35:27;1.85;;;1.52;;
52574;SDS011;38468;48.114;-1.684;2023-08-06T11:37:27;3.35;;;1.40;;
52574;SDS011;38468;48.114;-1.684;2023-08-06T11:39:28;5.88;;;2.75;;
52574;SDS011;38468;48.114;-1.684;2023-08-06T11:41:29;4.68;;;1.55;;
52574;SDS011;38468;48.114;-1.684;2023-08-06T11:43:30;4.53;;;1.23;;
52574;SDS011;38468;48.114;-1.684;2023-08-06T11:45:31;2.63;;;0.95;;
52574;SDS011;38468;48.114;-1.684;2023-08-06T11:47:37;5.60;;;1.55;;
52574;SDS011;38468;48.114;-1.684;2023-08-06T11:51:44;4.47;;;1.08;;
52574;SDS011;38468;48.114;-1.684;2023-08-06T11:53:48;2.58;;;1.05;;
52574;SDS011;38468;48.114;-1.684;2023-08-06T11:55:49;2.47;;;1.02;;
52574;SDS011;38468;48.114;-1.684;2023-08-06T11:57:51;2.92;;;1.02;;
52574;SDS011;38468;48.114;-1.684;2023-08-06T11:59:53;1.10;;;0.60;;
52574;SDS011;38468;48.114;-1.684;2023-08-06T12:01:53;4.28;;;1.02;;
52574;SDS011;38468;48.114;-1.684;2023-08-06T12:03:58;3.50;;;0.77;;
52574;SDS011;38468;48.114;-1.684;2023-08-06T12:05:59;1.75;;;0.50;;
52574;SDS011;38468;48.114;-1.684;2023-08-06T12:08:00;3.78;;;0.82;;
52574;SDS011;38468;48.114;-1.684;2023-08-06T12:10:02;1.63;;;0.88;;
52574;SDS011;38468;48.114;-1.684;2023-08-06T12:12:03;1.42;;;1.23;;